Time;durP1;ratioP1;P1;durP2;ratioP2;P2;SDS_P1;SDS_P2;PMS_P1;PMS_P2;Temp;Humidity;BMP_temperature;BMP_pressure;BME280_temperature;BME280_humidity;BME280_pressure;Samples;Min_cycle;Max_cycle;Signal;HPM_P1;HPM_P2
2021/12/28 00:01:33;;;;;;;3.03;1.08;;;10.50;99.90;;;;;;5045457;28;20451;-66
2021/12/28 00:04:04;;;;;;;3.83;1.00;;;10.50;99.90;;;;;;5045655;28;20048;-67
2021/12/28 00:06:31;;;;;;;1.83;0.93;;;10.50;99.90;;;;;;5046371;28;20041;-67
2021/12/28 00:08:58;;;;;;;4.35;1.30;;;10.50;99.90;;;;;;5046845;28;20106;-65
2021/12/28 00:11:25;;;;;;;3.97;1.10;;;10.50;99.90;;;;;;5044926;28;20053;-65
2021/12/28 00:14:00;;;;;;;6.57;0.95;;;10.50;99.90;;;;;;5045625;28;20283;-68
2021/12/28 00:16:34;;;;;;;4.63;1.00;;;10.50;99.90;;;;;;5045089;28;20037;-67
2021/12/28 00:19:01;;;;;;;2.35;1.02;;;10.50;99.90;;;;;;5045336;28;20290;-66
2021/12/28 00:21:32;;;;;;;3.15;0.90;;;10.60;99.90;;;;;;5045217;28;20045;-66
2021/12/28 00:24:01;;;;;;;4.47;1.15;;;10.60;99.90;;;;;;5045769;28;20064;-66
2021/12/28 00:26:28;;;;;;;8.20;0.95;;;10.60;99.90;;;;;;5045889;28;20041;-66
2021/12/28 00:28:55;;;;;;;2.70;0.98;;;10.60;99.90;;;;;;5048628;28;20084;-65
2021/12/28 00:31:23;;;;;;;3.63;1.02;;;10.70;99.90;;;;;;5047840;28;20570;-66
2021/12/28 00:33:52;;;;;;;4.13;0.95;;;10.70;99.90;;;;;;5048031;28;20140;-66
2021/12/28 00:36:19;;;;;;;3.55;0.98;;;10.70;99.90;;;;;;5045986;28;20049;-66
2021/12/28 00:38:46;;;;;;;6.90;1.80;;;10.70;99.90;;;;;;5048527;28;20088;-65
2021/12/28 00:41:12;;;;;;;3.40;1.20;;;10.70;99.90;;;;;;5046539;28;20045;-65
2021/12/28 00:43:39;;;;;;;10.52;1.50;;;10.60;99.90;;;;;;5048421;28;20457;-65
2021/12/28 00:46:06;;;;;;;8.50;1.42;;;10.60;99.90;;;;;;5047937;28;20472;-65
2021/12/28 00:48:33;;;;;;;5.38;1.50;;;10.70;99.90;;;;;;5046487;28;20416;-64
2021/12/28 00:51:00;;;;;;;10.27;1.85;;;10.70;99.90;;;;;;5045491;28;20052;-65
2021/12/28 00:53:27;;;;;;;9.45;2.10;;;10.70;99.90;;;;;;5045652;28;20071;-66
2021/12/28 00:55:54;;;;;;;8.18;3.20;;;10.70;99.90;;;;;;5045751;28;20045;-66
2021/12/28 00:58:21;;;;;;;8.73;1.73;;;10.70;99.90;;;;;;5044568;28;20200;-65
2021/12/28 01:00:48;;;;;;;10.27;2.13;;;10.70;99.90;;;;;;5045488;28;20072;-66
2021/12/28 01:03:15;;;;;;;7.45;1.98;;;10.70;99.90;;;;;;5043936;28;20088;-66
2021/12/28 01:05:42;;;;;;;8.82;1.80;;;10.70;99.90;;;;;;5047526;28;20048;-67
2021/12/28 01:08:09;;;;;;;10.27;2.03;;;10.70;99.90;;;;;;5046683;28;20214;-67
2021/12/28 01:10:39;;;;;;;8.43;2.20;;;10.70;99.90;;;;;;5047946;28;20277;-65
2021/12/28 01:13:06;;;;;;;9.35;3.20;;;10.60;99.90;;;;;;5047796;28;20081;-66
2021/12/28 01:15:33;;;;;;;9.70;1.85;;;10.70;99.90;;;;;;5048412;28;20114;-66
2021/12/28 01:18:00;;;;;;;14.35;1.60;;;10.60;99.90;;;;;;5047691;28;20099;-66
2021/12/28 01:20:26;;;;;;;6.28;2.42;;;10.60;99.90;;;;;;5048109;28;20045;-66
2021/12/28 01:22:53;;;;;;;11.23;2.15;;;10.60;99.90;;;;;;5046629;28;20102;-66
2021/12/28 01:25:20;;;;;;;13.30;3.05;;;10.60;99.90;;;;;;5047784;28;20080;-65
2021/12/28 01:27:47;;;;;;;8.90;1.90;;;10.60;99.90;;;;;;5047717;28;20111;-65
2021/12/28 01:30:15;;;;;;;13.07;1.70;;;10.70;99.90;;;;;;5045910;28;20143;-65
2021/12/28 01:32:41;;;;;;;12.75;1.92;;;10.70;99.90;;;;;;5047500;28;20224;-65
2021/12/28 01:35:09;;;;;;;15.07;2.45;;;10.70;99.90;;;;;;5048142;28;20049;-65
2021/12/28 01:37:37;;;;;;;9.95;2.10;;;10.70;99.90;;;;;;5047676;28;20060;-68
2021/12/28 01:40:08;;;;;;;14.75;2.60;;;10.80;99.90;;;;;;5048143;28;20514;-65
2021/12/28 01:42:55;;;;;;;9.32;2.30;;;10.80;99.90;;;;;;5048075;28;20045;-66
2021/12/28 01:45:42;;;;;;;16.42;3.45;;;10.90;99.90;;;;;;5047872;28;20076;-65
2021/12/28 01:48:10;;;;;;;10.13;2.70;;;10.90;99.90;;;;;;5047621;28;20369;-65
2021/12/28 01:50:37;;;;;;;20.30;3.78;;;10.90;99.90;;;;;;5046767;28;20099;-65
2021/12/28 01:53:05;;;;;;;12.57;2.15;;;10.90;99.90;;;;;;5046606;28;20099;-65
2021/12/28 01:55:32;;;;;;;15.80;2.85;;;10.90;99.90;;;;;;5047421;28;20072;-66
2021/12/28 01:57:59;;;;;;;13.20;1.98;;;11.00;99.90;;;;;;5049135;28;20072;-66
2021/12/28 02:00:26;;;;;;;16.40;2.53;;;11.00;99.90;;;;;;5048354;28;20037;-65
2021/12/28 02:02:53;;;;;;;7.93;1.67;;;11.00;99.90;;;;;;5045905;28;20349;-64
2021/12/28 02:05:20;;;;;;;17.45;2.80;;;11.00;99.90;;;;;;5047655;28;20048;-65
2021/12/28 02:07:47;;;;;;;9.48;2.22;;;11.00;99.90;;;;;;5047536;28;20491;-65
2021/12/28 02:10:13;;;;;;;13.05;2.13;;;11.00;99.90;;;;;;5047302;28;20103;-65
2021/12/28 02:12:41;;;;;;;12.02;4.30;;;11.10;99.90;;;;;;5047641;28;20041;-65
2021/12/28 02:15:13;;;;;;;14.60;3.97;;;11.10;99.90;;;;;;5046376;28;20073;-65
2021/12/28 02:17:39;;;;;;;11.73;3.15;;;11.10;99.90;;;;;;5047671;28;20124;-65
2021/12/28 02:20:11;;;;;;;11.43;2.17;;;11.10;99.90;;;;;;5047560;28;20095;-65
2021/12/28 02:22:38;;;;;;;9.70;1.92;;;11.10;99.90;;;;;;5046408;28;20088;-66
2021/12/28 02:25:06;;;;;;;12.10;2.60;;;11.10;99.90;;;;;;5047531;28;20196;-66
2021/12/28 02:27:33;;;;;;;9.15;1.90;;;11.20;99.90;;;;;;5046374;28;20053;-66
2021/12/28 02:30:02;;;;;;;11.07;1.92;;;11.20;99.90;;;;;;5044682;28;20068;-66
2021/12/28 02:32:29;;;;;;;8.00;1.80;;;11.20;99.90;;;;;;5047429;28;20142;-65
2021/12/28 02:34:56;;;;;;;9.50;2.47;;;11.10;99.90;;;;;;5047558;28;20073;-65
2021/12/28 02:37:23;;;;;;;17.13;4.30;;;11.20;99.90;;;;;;5048042;28;20044;-65
2021/12/28 02:39:51;;;;;;;4.50;1.70;;;11.20;99.90;;;;;;5047530;28;20091;-65
2021/12/28 02:42:19;;;;;;;7.85;1.38;;;11.20;99.90;;;;;;5050444;28;20106;-65
2021/12/28 02:45:09;;;;;;;8.25;1.65;;;11.20;99.90;;;;;;5051035;28;20148;-65
2021/12/28 02:47:37;;;;;;;9.88;1.90;;;11.20;99.90;;;;;;5050377;28;20041;-65
2021/12/28 02:50:07;;;;;;;10.82;1.55;;;11.20;99.90;;;;;;5050760;28;20068;-65
2021/12/28 02:52:36;;;;;;;13.73;2.88;;;11.30;99.90;;;;;;5051049;28;20102;-66
2021/12/28 02:55:08;;;;;;;8.20;1.40;;;11.30;99.90;;;;;;5050771;28;20053;-66
2021/12/28 02:57:35;;;;;;;13.90;2.22;;;11.20;99.90;;;;;;5051076;28;20068;-66
2021/12/28 03:00:04;;;;;;;6.55;1.38;;;11.20;99.90;;;;;;5050989;28;20084;-66
2021/12/28 03:02:31;;;;;;;5.75;1.40;;;11.20;99.90;;;;;;5050522;28;20091;-66
2021/12/28 03:04:58;;;;;;;4.03;1.33;;;11.20;99.90;;;;;;5050878;28;20053;-66
2021/12/28 03:07:31;;;;;;;8.60;1.48;;;11.20;99.90;;;;;;5050244;28;20079;-66
2021/12/28 03:09:58;;;;;;;12.02;2.22;;;11.20;99.90;;;;;;5049723;28;20048;-65
2021/12/28 03:12:24;;;;;;;6.30;1.20;;;11.10;99.90;;;;;;5050313;28;20095;-65
2021/12/28 03:14:51;;;;;;;8.55;1.38;;;11.10;99.90;;;;;;5050891;28;20053;-65
2021/12/28 03:17:18;;;;;;;4.63;1.10;;;11.10;99.90;;;;;;5050408;28;20135;-65
2021/12/28 03:19:45;;;;;;;7.28;1.35;;;11.10;99.90;;;;;;5050557;28;20088;-65
2021/12/28 03:22:12;;;;;;;6.15;1.20;;;11.10;99.90;;;;;;5050495;28;20068;-65
2021/12/28 03:24:38;;;;;;;6.45;0.93;;;11.00;99.90;;;;;;5049252;28;20049;-65
2021/12/28 03:27:05;;;;;;;4.78;1.40;;;11.00;99.90;;;;;;5050112;28;20073;-65
2021/12/28 03:29:32;;;;;;;6.47;1.90;;;10.90;99.90;;;;;;5050338;28;20110;-65
2021/12/28 03:31:59;;;;;;;7.43;1.40;;;10.90;99.90;;;;;;5050509;28;20067;-66
2021/12/28 03:34:26;;;;;;;6.25;1.35;;;10.80;99.90;;;;;;5050593;28;20106;-65
2021/12/28 03:36:53;;;;;;;5.22;1.17;;;10.80;99.90;;;;;;5051265;28;20768;-65
2021/12/28 03:39:19;;;;;;;5.82;1.77;;;10.80;99.90;;;;;;5051054;28;20102;-65
2021/12/28 03:41:47;;;;;;;8.88;1.45;;;10.80;99.90;;;;;;5048841;28;20053;-66
2021/12/28 03:44:14;;;;;;;4.85;1.30;;;10.80;99.90;;;;;;5048885;28;20080;-65
2021/12/28 03:46:41;;;;;;;10.07;1.67;;;10.80;99.90;;;;;;5050066;28;20102;-65
2021/12/28 03:49:08;;;;;;;4.70;1.20;;;10.80;99.90;;;;;;5048258;28;20103;-65
2021/12/28 03:51:35;;;;;;;7.15;1.55;;;10.80;99.90;;;;;;5050210;28;20091;-65
2021/12/28 03:54:02;;;;;;;11.73;1.23;;;10.80;99.90;;;;;;5048669;28;20129;-65
2021/12/28 03:56:28;;;;;;;8.55;1.00;;;10.80;99.90;;;;;;5050003;28;20071;-65
2021/12/28 03:58:55;;;;;;;5.30;1.70;;;10.80;99.90;;;;;;5049715;28;20049;-65
2021/12/28 04:01:23;;;;;;;4.13;1.20;;;10.90;99.90;;;;;;5047989;28;20527;-66
2021/12/28 04:03:50;;;;;;;11.13;3.30;;;10.80;99.90;;;;;;5047929;28;20056;-66
2021/12/28 04:06:19;;;;;;;12.88;1.88;;;10.80;99.90;;;;;;5049872;28;20073;-66
2021/12/28 04:08:46;;;;;;;6.90;0.98;;;10.80;99.90;;;;;;5049456;28;20049;-66
2021/12/28 04:11:15;;;;;;;12.15;2.75;;;10.80;99.90;;;;;;5049590;28;20296;-65
2021/12/28 04:13:44;;;;;;;15.20;2.22;;;10.70;99.90;;;;;;5048092;28;20056;-66
2021/12/28 04:16:11;;;;;;;6.03;2.00;;;10.70;99.90;;;;;;5049293;28;20377;-66
2021/12/28 04:18:38;;;;;;;7.13;2.28;;;10.70;99.90;;;;;;5048005;28;20045;-66
2021/12/28 04:21:04;;;;;;;8.00;1.13;;;10.70;99.90;;;;;;5048239;28;20053;-65
2021/12/28 04:23:31;;;;;;;3.33;1.20;;;10.60;99.90;;;;;;5049315;28;20045;-66
2021/12/28 04:25:58;;;;;;;6.32;2.13;;;10.70;99.90;;;;;;5038397;28;20104;-66
2021/12/28 04:28:25;;;;;;;5.55;0.90;;;10.60;99.90;;;;;;5047808;28;20159;-66
2021/12/28 04:30:52;;;;;;;7.00;0.82;;;10.60;99.90;;;;;;5049016;28;20049;-66
2021/12/28 04:33:19;;;;;;;5.35;1.40;;;10.60;99.90;;;;;;5049138;28;20415;-66
2021/12/28 04:35:46;;;;;;;5.78;0.93;;;10.50;99.90;;;;;;5049230;28;20103;-66
2021/12/28 04:38:13;;;;;;;7.18;2.17;;;10.50;99.90;;;;;;5048179;28;20049;-66
2021/12/28 04:40:39;;;;;;;5.85;1.20;;;10.50;99.90;;;;;;5048807;28;20527;-66
2021/12/28 04:43:07;;;;;;;5.05;1.35;;;10.50;99.90;;;;;;5048951;28;20080;-65
2021/12/28 04:45:36;;;;;;;5.43;0.80;;;10.50;99.90;;;;;;5048678;28;20049;-65
2021/12/28 04:48:04;;;;;;;3.05;1.35;;;10.50;99.90;;;;;;5029230;28;20075;-65
2021/12/28 04:50:37;;;;;;;7.35;1.10;;;10.40;99.90;;;;;;5043318;28;20049;-65
2021/12/28 04:53:08;;;;;;;3.15;1.10;;;10.40;99.90;;;;;;5049021;28;20053;-65
2021/12/28 04:55:37;;;;;;;3.55;1.85;;;10.40;99.90;;;;;;5048563;28;20052;-65
2021/12/28 04:58:04;;;;;;;6.00;0.82;;;10.40;99.90;;;;;;5048795;28;20132;-65
2021/12/28 05:00:31;;;;;;;3.90;0.98;;;10.40;99.90;;;;;;5048845;28;20096;-65
2021/12/28 05:02:58;;;;;;;3.92;0.70;;;10.40;99.90;;;;;;5048963;28;20132;-64
2021/12/28 05:05:25;;;;;;;2.15;0.85;;;10.40;99.90;;;;;;5048638;28;20056;-65
2021/12/28 05:07:52;;;;;;;5.03;0.80;;;10.40;99.90;;;;;;5048981;28;20111;-64
2021/12/28 05:10:19;;;;;;;2.38;0.68;;;10.40;99.90;;;;;;5048492;28;20076;-65
2021/12/28 05:12:46;;;;;;;5.05;0.60;;;10.40;99.90;;;;;;5048806;28;20077;-65
2021/12/28 05:15:12;;;;;;;2.78;0.47;;;10.40;99.90;;;;;;5048088;28;20045;-65
2021/12/28 05:17:39;;;;;;;4.82;0.98;;;10.40;99.90;;;;;;5048831;28;20044;-65
2021/12/28 05:20:08;;;;;;;4.63;0.65;;;10.40;99.90;;;;;;5048807;28;20075;-66
2021/12/28 05:22:35;;;;;;;1.38;0.52;;;10.40;99.90;;;;;;5048484;28;20451;-66
2021/12/28 05:25:02;;;;;;;5.15;0.77;;;10.40;99.90;;;;;;5048281;28;20081;-65
2021/12/28 05:27:29;;;;;;;6.60;1.27;;;10.40;99.90;;;;;;5048311;28;20040;-65
2021/12/28 05:29:56;;;;;;;1.45;0.40;;;10.40;99.90;;;;;;5048252;28;20048;-65
2021/12/28 05:32:23;;;;;;;1.05;0.40;;;10.40;99.90;;;;;;5048479;28;20100;-65
2021/12/28 05:34:50;;;;;;;3.92;0.70;;;10.40;99.90;;;;;;5048685;28;20084;-66
2021/12/28 05:37:16;;;;;;;2.53;0.55;;;10.40;99.90;;;;;;5048006;28;20077;-65
2021/12/28 05:39:43;;;;;;;1.27;0.38;;;10.50;99.90;;;;;;5028458;28;20053;-65
2021/12/28 05:42:10;;;;;;;1.65;0.50;;;10.40;99.90;;;;;;5042144;28;20582;-65
2021/12/28 05:44:37;;;;;;;3.20;0.52;;;10.40;99.90;;;;;;5047152;28;20057;-65
2021/12/28 05:47:04;;;;;;;4.15;0.60;;;10.40;99.90;;;;;;5047962;28;20077;-66
2021/12/28 05:49:30;;;;;;;3.22;0.50;;;10.50;99.90;;;;;;5048061;28;20084;-65
2021/12/28 05:51:57;;;;;;;7.22;0.50;;;10.40;99.90;;;;;;5047847;28;20037;-66
2021/12/28 05:54:24;;;;;;;0.40;0.40;;;10.40;99.90;;;;;;5048130;28;20487;-65
2021/12/28 05:56:51;;;;;;;4.88;0.75;;;10.40;99.90;;;;;;5048096;28;20041;-65
2021/12/28 05:59:18;;;;;;;1.30;0.60;;;10.40;99.90;;;;;;5048272;28;20041;-65
2021/12/28 06:01:45;;;;;;;0.63;0.40;;;10.40;99.90;;;;;;5047981;28;20045;-65
2021/12/28 06:04:12;;;;;;;2.38;0.40;;;10.40;99.90;;;;;;5048781;28;20106;-65
2021/12/28 06:06:39;;;;;;;3.10;0.40;;;10.40;99.90;;;;;;5048543;28;20085;-64
2021/12/28 06:09:06;;;;;;;2.67;0.32;;;10.40;99.90;;;;;;5048589;28;20549;-64
2021/12/28 06:11:33;;;;;;;2.83;0.43;;;10.40;99.90;;;;;;5047855;28;20640;-64
2021/12/28 06:13:59;;;;;;;1.60;0.47;;;10.30;99.90;;;;;;5047387;28;20121;-65
2021/12/28 06:16:31;;;;;;;0.35;0.35;;;10.30;99.90;;;;;;5050510;28;20049;-64
2021/12/28 06:18:57;;;;;;;0.90;0.80;;;10.30;99.90;;;;;;5052021;28;20270;-64
2021/12/28 06:21:26;;;;;;;0.63;0.32;;;10.20;99.90;;;;;;5052708;28;20084;-64
2021/12/28 06:23:52;;;;;;;3.67;0.40;;;10.20;99.90;;;;;;5052067;28;20045;-65
2021/12/28 06:26:19;;;;;;;2.10;0.30;;;10.30;99.90;;;;;;5051929;28;20099;-64
2021/12/28 06:28:46;;;;;;;0.20;0.20;;;10.30;99.90;;;;;;5051442;28;20099;-65
2021/12/28 06:31:13;;;;;;;0.90;0.20;;;10.30;99.90;;;;;;5051333;28;20072;-65
2021/12/28 06:33:40;;;;;;;1.40;0.40;;;10.30;99.90;;;;;;5051680;28;20045;-66
2021/12/28 06:36:06;;;;;;;3.75;1.40;;;10.30;99.90;;;;;;5050143;28;20102;-65
2021/12/28 06:38:33;;;;;;;4.28;0.40;;;10.30;99.90;;;;;;5051117;28;20067;-65
2021/12/28 06:41:01;;;;;;;0.20;0.20;;;10.30;99.90;;;;;;5051422;28;20045;-65
2021/12/28 06:43:28;;;;;;;0.82;0.30;;;10.40;99.90;;;;;;5051146;28;20041;-65
2021/12/28 06:45:55;;;;;;;1.90;0.25;;;10.40;99.90;;;;;;5051306;28;20053;-65
2021/12/28 06:48:22;;;;;;;1.30;0.32;;;10.30;99.90;;;;;;5049561;28;20045;-65
2021/12/28 06:50:49;;;;;;;1.08;0.30;;;10.30;99.90;;;;;;5051349;28;20085;-65
2021/12/28 06:53:16;;;;;;;0.32;0.20;;;10.40;99.90;;;;;;5051179;28;20092;-65
2021/12/28 06:55:43;;;;;;;0.20;0.20;;;10.30;99.90;;;;;;5051998;28;20045;-65
2021/12/28 06:58:10;;;;;;;1.50;0.40;;;10.30;99.90;;;;;;5052913;28;20049;-65
2021/12/28 07:00:37;;;;;;;0.70;0.30;;;10.30;99.90;;;;;;5051545;28;20073;-65
2021/12/28 07:03:04;;;;;;;0.68;0.30;;;10.30;99.90;;;;;;5051266;28;20053;-64
2021/12/28 07:05:31;;;;;;;0.20;0.20;;;10.30;99.90;;;;;;5050765;28;20049;-64
2021/12/28 07:07:58;;;;;;;0.93;0.20;;;10.30;99.90;;;;;;5050982;28;20091;-65
2021/12/28 07:10:25;;;;;;;0.65;0.32;;;10.30;99.90;;;;;;5050412;28;20080;-65
2021/12/28 07:12:53;;;;;;;3.08;1.63;;;10.30;99.90;;;;;;5050499;28;20080;-65
2021/12/28 07:15:20;;;;;;;0.40;0.35;;;10.30;99.90;;;;;;4699528;28;10000483;-65
2021/12/28 07:17:48;;;;;;;1.25;0.40;;;10.40;99.90;;;;;;5029388;28;20239;-66
2021/12/28 07:20:15;;;;;;;3.42;0.30;;;10.40;99.90;;;;;;5047464;28;20567;-65
2021/12/28 07:22:42;;;;;;;1.55;0.45;;;10.50;99.90;;;;;;5047852;28;20084;-65
2021/12/28 07:25:09;;;;;;;0.90;0.30;;;10.50;99.90;;;;;;5047048;28;20508;-66
2021/12/28 07:27:37;;;;;;;0.45;0.30;;;10.50;99.90;;;;;;5047327;28;20487;-65
2021/12/28 07:30:05;;;;;;;0.65;0.20;;;10.50;99.90;;;;;;5046617;28;20053;-66
2021/12/28 07:32:32;;;;;;;0.22;0.20;;;10.50;99.90;;;;;;5044662;28;20119;-65
2021/12/28 07:35:02;;;;;;;2.45;0.60;;;10.40;99.90;;;;;;5045650;28;20129;-65
2021/12/28 07:37:29;;;;;;;3.58;0.47;;;10.50;99.90;;;;;;5046973;28;20052;-67
2021/12/28 07:39:56;;;;;;;5.45;0.70;;;10.60;99.90;;;;;;5047048;28;20080;-67
2021/12/28 07:42:23;;;;;;;3.08;0.63;;;10.60;99.90;;;;;;5047227;28;20080;-67
2021/12/28 07:44:49;;;;;;;4.47;1.60;;;10.60;99.90;;;;;;5046820;28;20053;-67
2021/12/28 07:47:16;;;;;;;2.88;0.73;;;10.60;99.40;;;;;;5046893;28;20044;-67
2021/12/28 07:49:43;;;;;;;8.93;1.30;;;10.60;99.30;;;;;;5045598;28;20085;-66
2021/12/28 07:52:10;;;;;;;8.75;1.42;;;10.60;98.90;;;;;;5044756;28;20049;-67
2021/12/28 07:54:37;;;;;;;6.13;1.40;;;10.60;98.60;;;;;;5045790;28;20142;-67
2021/12/28 07:57:04;;;;;;;6.47;1.42;;;10.60;98.80;;;;;;5042452;28;20057;-68
2021/12/28 07:59:30;;;;;;;9.98;1.38;;;10.50;99.10;;;;;;5044373;28;20091;-67
2021/12/28 08:01:57;;;;;;;9.77;1.73;;;10.50;98.50;;;;;;5044554;28;20068;-68
2021/12/28 08:04:27;;;;;;;18.30;2.65;;;10.40;98.50;;;;;;5046674;28;20605;-67
2021/12/28 08:06:55;;;;;;;6.63;1.90;;;10.40;97.60;;;;;;5046293;28;20044;-67
2021/12/28 08:09:22;;;;;;;16.05;2.45;;;10.40;97.10;;;;;;5045424;28;20112;-67
2021/12/28 08:11:49;;;;;;;18.35;2.92;;;10.40;97.70;;;;;;5045274;28;20570;-67
2021/12/28 08:14:16;;;;;;;16.85;3.42;;;10.40;97.50;;;;;;5046901;28;20087;-67
2021/12/28 08:16:43;;;;;;;12.82;1.83;;;10.30;98.30;;;;;;5045765;28;20056;-67
2021/12/28 08:19:09;;;;;;;10.20;1.65;;;10.40;96.80;;;;;;5042391;28;20049;-64
2021/12/28 08:21:44;;;;;;;12.38;2.15;;;10.30;97.30;;;;;;5045827;28;20075;-63
2021/12/28 08:24:11;;;;;;;11.95;3.05;;;10.40;98.30;;;;;;5045423;28;20662;-62
2021/12/28 08:26:38;;;;;;;14.15;1.80;;;10.30;98.40;;;;;;5045122;28;20064;-61
2021/12/28 08:29:05;;;;;;;7.40;1.70;;;10.30;97.60;;;;;;5045764;28;20069;-61
2021/12/28 08:31:33;;;;;;;12.73;2.30;;;10.30;97.90;;;;;;5045022;28;20077;-62
2021/12/28 08:33:59;;;;;;;13.50;2.50;;;10.30;98.30;;;;;;5044781;28;20156;-61
2021/12/28 08:36:26;;;;;;;14.20;2.42;;;10.30;98.80;;;;;;5046125;28;20323;-61
2021/12/28 08:38:53;;;;;;;16.38;3.10;;;10.20;98.60;;;;;;5045591;28;20079;-62
2021/12/28 08:41:20;;;;;;;13.35;2.53;;;10.00;98.40;;;;;;5046079;28;20500;-62
2021/12/28 08:43:47;;;;;;;25.33;2.92;;;9.90;98.00;;;;;;5046102;28;20055;-61
2021/12/28 08:46:14;;;;;;;21.02;3.20;;;9.80;98.10;;;;;;5046326;28;20106;-62
2021/12/28 08:48:42;;;;;;;16.83;2.72;;;9.80;98.60;;;;;;5044234;28;20065;-63
2021/12/28 08:51:09;;;;;;;20.38;3.33;;;9.70;98.70;;;;;;5044682;28;20068;-62
2021/12/28 08:53:35;;;;;;;16.20;3.45;;;9.80;98.90;;;;;;5044104;28;20557;-66
2021/12/28 08:56:03;;;;;;;23.58;4.32;;;9.80;98.80;;;;;;5046207;28;20076;-62
2021/12/28 08:58:30;;;;;;;24.90;5.38;;;9.90;98.50;;;;;;5045694;28;20473;-62
2021/12/28 09:00:56;;;;;;;20.45;4.57;;;9.90;98.30;;;;;;5045746;28;20110;-62
2021/12/28 09:03:24;;;;;;;16.95;3.70;;;9.90;98.30;;;;;;5043151;28;20605;-62
2021/12/28 09:05:51;;;;;;;31.08;4.53;;;9.90;98.40;;;;;;5056660;28;20056;-61
2021/12/28 09:08:18;;;;;;;20.75;3.97;;;9.90;97.50;;;;;;5046744;28;20037;-61
2021/12/28 09:10:46;;;;;;;19.92;3.00;;;9.90;97.20;;;;;;5045223;28;20141;-62
2021/12/28 09:13:14;;;;;;;28.27;5.10;;;9.90;96.90;;;;;;5043801;28;20499;-61
2021/12/28 09:15:42;;;;;;;23.20;3.60;;;9.90;97.50;;;;;;5041992;28;20170;-62
2021/12/28 09:18:09;;;;;;;26.42;3.22;;;9.90;98.30;;;;;;5043453;28;20041;-62
2021/12/28 09:20:35;;;;;;;32.50;6.38;;;9.80;97.80;;;;;;5042092;28;20052;-62
2021/12/28 09:23:06;;;;;;;24.55;3.33;;;9.70;97.40;;;;;;5043846;28;20749;-62
2021/12/28 09:25:33;;;;;;;16.15;2.90;;;9.60;97.40;;;;;;5040722;28;20216;-62
2021/12/28 09:27:59;;;;;;;27.50;3.58;;;9.50;97.60;;;;;;5043325;28;20045;-62
2021/12/28 09:30:26;;;;;;;23.10;4.32;;;9.50;97.70;;;;;;5043167;28;20080;-62
2021/12/28 09:32:53;;;;;;;18.42;4.15;;;9.50;97.50;;;;;;5043096;28;20072;-62
2021/12/28 09:35:20;;;;;;;22.38;3.42;;;9.50;97.40;;;;;;5042068;28;20787;-61
2021/12/28 09:37:47;;;;;;;16.10;2.92;;;9.50;97.80;;;;;;5041503;28;20041;-62
2021/12/28 09:40:14;;;;;;;20.30;3.20;;;9.40;98.00;;;;;;5042222;28;20064;-61
2021/12/28 09:42:42;;;;;;;9.75;2.63;;;9.30;98.30;;;;;;5043882;28;20543;-62
2021/12/28 09:45:11;;;;;;;11.75;2.42;;;9.20;98.00;;;;;;5043634;28;20087;-61
2021/12/28 09:47:38;;;;;;;13.13;2.50;;;9.20;98.10;;;;;;5040858;28;20048;-62
2021/12/28 09:50:06;;;;;;;18.98;2.95;;;9.10;98.10;;;;;;5043169;28;20115;-62
2021/12/28 09:52:32;;;;;;;20.35;3.20;;;9.10;98.20;;;;;;5046733;28;21011;-62
2021/12/28 09:54:59;;;;;;;11.95;2.42;;;9.10;98.60;;;;;;5045845;28;20716;-62
2021/12/28 09:57:28;;;;;;;21.00;3.45;;;9.10;98.40;;;;;;5048008;28;20118;-62
2021/12/28 09:59:55;;;;;;;16.33;2.85;;;9.10;97.90;;;;;;5048154;28;20049;-62
2021/12/28 10:02:22;;;;;;;11.00;2.00;;;9.10;97.70;;;;;;5048162;28;20181;-62
2021/12/28 10:04:58;;;;;;;16.30;2.30;;;9.20;97.90;;;;;;5040834;28;20103;-62
2021/12/28 10:07:29;;;;;;;10.60;2.58;;;9.20;97.30;;;;;;5045473;28;20045;-62
2021/12/28 10:09:56;;;;;;;21.38;2.42;;;9.20;97.20;;;;;;5047244;28;20057;-61
2021/12/28 10:12:49;;;;;;;8.48;2.22;;;9.20;96.20;;;;;;5048314;28;20588;-62
2021/12/28 10:15:21;;;;;;;5.43;1.30;;;9.30;96.20;;;;;;5040789;28;20618;-62
2021/12/28 10:17:49;;;;;;;7.18;1.98;;;9.30;96.20;;;;;;5049202;28;20469;-61
2021/12/28 10:20:38;;;;;;;5.55;1.45;;;9.30;96.30;;;;;;5048658;28;20041;-62
2021/12/28 10:23:06;;;;;;;7.25;1.38;;;9.40;96.80;;;;;;5047419;28;20536;-61
2021/12/28 10:25:38;;;;;;;8.32;1.55;;;9.40;96.10;;;;;;5048532;28;20169;-61
2021/12/28 10:28:07;;;;;;;8.73;0.93;;;9.40;96.20;;;;;;5046899;28;20509;-61
2021/12/28 10:30:58;;;;;;;4.53;1.60;;;9.40;96.10;;;;;;5046691;28;20546;-61
2021/12/28 10:33:26;;;;;;;4.05;1.30;;;9.40;95.70;;;;;;5044462;28;20148;-61
2021/12/28 10:36:01;;;;;;;7.47;1.60;;;9.40;96.30;;;;;;5042702;28;20076;-61
2021/12/28 10:38:30;;;;;;;6.55;1.10;;;9.30;96.00;;;;;;5043649;28;20102;-61
2021/12/28 10:41:06;;;;;;;6.90;1.40;;;9.30;96.20;;;;;;5046512;28;20091;-61
2021/12/28 10:43:34;;;;;;;5.75;1.20;;;9.30;96.80;;;;;;5044034;28;20041;-61
2021/12/28 10:46:03;;;;;;;4.55;1.05;;;9.30;97.00;;;;;;5044694;28;20081;-62
2021/12/28 10:48:35;;;;;;;4.45;1.38;;;9.20;97.50;;;;;;5045723;28;20049;-62
2021/12/28 10:51:14;;;;;;;5.03;0.95;;;9.10;97.60;;;;;;5037373;28;20638;-62
2021/12/28 10:54:00;;;;;;;3.65;1.02;;;9.00;97.90;;;;;;5043752;28;20163;-62
2021/12/28 10:56:29;;;;;;;6.18;1.13;;;9.00;97.70;;;;;;5038580;28;20103;-61
2021/12/28 10:58:56;;;;;;;8.43;1.58;;;9.00;98.20;;;;;;5043814;28;20061;-62
2021/12/28 11:01:24;;;;;;;9.15;1.10;;;8.90;98.30;;;;;;5042262;28;20107;-61
2021/12/28 11:03:56;;;;;;;6.55;1.42;;;8.80;98.50;;;;;;5043887;28;20047;-62
2021/12/28 11:06:27;;;;;;;12.50;2.65;;;8.80;99.20;;;;;;5042017;28;20140;-62
2021/12/28 11:08:57;;;;;;;5.00;1.30;;;8.70;99.50;;;;;;5044463;28;20072;-62
2021/12/28 11:11:27;;;;;;;5.45;1.58;;;8.70;99.50;;;;;;5044956;28;20138;-62
2021/12/28 11:13:55;;;;;;;7.03;1.05;;;8.60;99.80;;;;;;5044758;28;20145;-61
2021/12/28 11:16:26;;;;;;;8.20;1.25;;;8.60;99.90;;;;;;5043663;28;20095;-62
2021/12/28 11:19:00;;;;;;;5.88;1.00;;;8.60;99.90;;;;;;5044651;28;20047;-61
2021/12/28 11:21:34;;;;;;;12.43;2.30;;;8.60;99.90;;;;;;5042455;28;20566;-61
2021/12/28 11:24:13;;;;;;;9.38;1.55;;;8.60;99.90;;;;;;5044522;28;20590;-61
2021/12/28 11:26:45;;;;;;;10.48;1.60;;;8.60;99.90;;;;;;5044407;28;20045;-62
2021/12/28 11:29:16;;;;;;;8.75;2.53;;;8.70;99.90;;;;;;5044458;28;20485;-61
2021/12/28 11:31:53;;;;;;;9.07;1.52;;;8.70;99.90;;;;;;5042654;28;20057;-61
2021/12/28 11:34:31;;;;;;;7.70;2.00;;;8.80;99.90;;;;;;5044807;28;20499;-62
2021/12/28 11:36:59;;;;;;;8.25;1.35;;;8.80;99.90;;;;;;5044275;28;20209;-62
2021/12/28 11:39:30;;;;;;;15.48;2.03;;;8.90;99.90;;;;;;5044580;28;20041;-62
2021/12/28 11:41:58;;;;;;;11.10;2.45;;;9.00;99.90;;;;;;5044855;28;20378;-62
2021/12/28 11:44:25;;;;;;;13.10;3.20;;;9.00;99.90;;;;;;5043749;28;20126;-62
2021/12/28 11:46:53;;;;;;;13.80;3.45;;;9.10;99.90;;;;;;5044332;28;20152;-62
2021/12/28 11:49:24;;;;;;;16.30;3.88;;;9.10;99.90;;;;;;4991547;28;1341417;-62
2021/12/28 11:51:52;;;;;;;18.40;3.33;;;9.20;99.90;;;;;;5046218;28;20593;-62
2021/12/28 11:54:19;;;;;;;16.02;3.72;;;9.20;99.90;;;;;;5042311;28;20065;-61
2021/12/28 11:56:57;;;;;;;23.52;2.72;;;9.30;99.90;;;;;;5042432;28;20098;-62
2021/12/28 11:59:26;;;;;;;11.25;2.67;;;9.30;99.90;;;;;;5044777;28;20037;-62
2021/12/28 12:01:58;;;;;;;14.43;3.17;;;9.30;99.90;;;;;;5040557;28;20049;-65
2021/12/28 12:04:34;;;;;;;9.85;2.80;;;9.40;99.90;;;;;;5045186;28;20107;-62
2021/12/28 12:07:16;;;;;;;17.23;2.60;;;9.50;99.80;;;;;;5039678;28;20044;-62
2021/12/28 12:09:49;;;;;;;16.75;2.90;;;9.50;99.60;;;;;;5042247;28;20397;-61
2021/12/28 12:12:33;;;;;;;16.83;3.60;;;9.60;99.60;;;;;;5044607;28;20554;-61
2021/12/28 12:15:01;;;;;;;16.55;3.58;;;9.60;99.60;;;;;;5043736;28;20041;-63
2021/12/28 12:17:28;;;;;;;24.25;2.78;;;9.70;99.60;;;;;;5040092;28;20110;-62
2021/12/28 12:19:57;;;;;;;34.75;6.20;;;9.90;99.60;;;;;;5042314;28;20087;-61
2021/12/28 12:22:29;;;;;;;14.43;3.05;;;9.90;99.50;;;;;;5044329;28;20048;-62
2021/12/28 12:25:00;;;;;;;15.50;5.40;;;9.90;99.20;;;;;;5043408;28;20049;-61
2021/12/28 12:27:49;;;;;;;26.48;4.25;;;10.00;99.00;;;;;;5042773;28;20813;-61
2021/12/28 12:30:27;;;;;;;27.63;4.68;;;10.00;98.70;;;;;;5042277;28;20080;-61
2021/12/28 12:33:06;;;;;;;20.50;3.63;;;10.10;98.80;;;;;;5042646;28;20139;-61
2021/12/28 12:35:43;;;;;;;15.00;3.58;;;10.10;99.00;;;;;;5044345;28;20044;-61
2021/12/28 12:38:10;;;;;;;18.02;3.65;;;10.20;99.00;;;;;;5045347;28;20091;-61
2021/12/28 12:41:08;;;;;;;13.95;2.83;;;10.20;98.90;;;;;;5044303;28;20103;-62
2021/12/28 12:43:35;;;;;;;22.13;3.50;;;10.20;98.20;;;;;;5044716;28;20118;-62
2021/12/28 12:46:21;;;;;;;15.48;3.17;;;10.30;98.70;;;;;;5044854;28;20056;-62
2021/12/28 12:48:54;;;;;;;16.40;3.47;;;10.30;98.20;;;;;;5044686;28;20072;-61
2021/12/28 12:51:21;;;;;;;19.92;3.38;;;10.40;98.50;;;;;;5044173;28;20064;-62
2021/12/28 12:53:50;;;;;;;24.25;4.38;;;10.40;98.40;;;;;;5044332;28;20107;-62